Time;durP1;ratioP1;P1;durP2;ratioP2;P2;SDS_P1;SDS_P2;PMS_P1;PMS_P2;Temp;Humidity;BMP_temperature;BMP_pressure;BME280_temperature;BME280_humidity;BME280_pressure;Samples;Min_cycle;Max_cycle;Signal;HPM_P1;HPM_P2
2023/01/19 00:00:11;;;;;;;1.20;0.55;;;2.20;99.90;;;;;;5006950;28;20042;-38
2023/01/19 00:02:37;;;;;;;2.08;0.50;;;2.10;99.90;;;;;;4989901;28;20090;-38
2023/01/19 00:05:04;;;;;;;2.25;0.55;;;2.00;99.90;;;;;;5007220;28;20054;-38
2023/01/19 00:07:30;;;;;;;2.05;0.60;;;2.00;99.90;;;;;;5009947;28;20044;-38
2023/01/19 00:09:56;;;;;;;1.13;0.40;;;1.90;99.90;;;;;;5006607;28;20557;-38
2023/01/19 00:12:22;;;;;;;1.08;0.40;;;1.90;99.90;;;;;;5012782;28;20038;-38
2023/01/19 00:14:48;;;;;;;1.13;0.30;;;1.80;99.90;;;;;;5010785;28;20049;-38
2023/01/19 00:17:13;;;;;;;0.57;0.30;;;1.80;99.90;;;;;;5011899;28;20042;-37
2023/01/19 00:19:39;;;;;;;0.68;0.35;;;1.80;99.90;;;;;;5011985;28;20049;-38
2023/01/19 00:22:05;;;;;;;0.95;0.43;;;1.70;99.90;;;;;;5005041;28;20447;-38
2023/01/19 00:24:31;;;;;;;1.55;0.68;;;1.70;99.90;;;;;;5006029;28;20121;-38
2023/01/19 00:26:57;;;;;;;0.70;0.35;;;1.70;99.90;;;;;;5009228;28;20165;-39
2023/01/19 00:29:23;;;;;;;2.38;0.50;;;1.70;99.90;;;;;;4992149;28;20042;-38
2023/01/19 00:31:49;;;;;;;1.13;0.55;;;1.70;99.90;;;;;;5005198;28;20050;-38
2023/01/19 00:34:15;;;;;;;2.28;0.90;;;1.70;99.90;;;;;;5007707;28;20046;-38
2023/01/19 00:36:41;;;;;;;1.13;0.40;;;1.70;99.90;;;;;;5009528;28;20054;-40
2023/01/19 00:39:07;;;;;;;2.22;0.57;;;1.70;99.90;;;;;;5009644;28;20040;-38
2023/01/19 00:44:17;;;;;;;1.15;0.68;;;1.70;99.90;;;;;;5006323;28;20406;-38
2023/01/19 00:46:43;;;;;;;2.38;1.00;;;1.70;99.90;;;;;;5011453;28;20063;-38
2023/01/19 00:49:09;;;;;;;1.35;0.85;;;1.70;99.90;;;;;;5010339;28;20042;-39
2023/01/19 00:51:34;;;;;;;3.65;1.08;;;1.70;99.90;;;;;;5007069;28;20037;-38
2023/01/19 00:54:03;;;;;;;2.80;1.08;;;1.70;99.90;;;;;;5007071;28;20034;-38
2023/01/19 00:56:32;;;;;;;2.95;1.25;;;1.70;99.90;;;;;;5001917;28;20160;-38
2023/01/19 00:58:58;;;;;;;3.33;1.80;;;1.70;99.90;;;;;;5008911;28;20038;-38
2023/01/19 01:01:24;;;;;;;4.03;1.63;;;1.70;99.90;;;;;;5008563;28;20042;-38
2023/01/19 01:03:50;;;;;;;2.03;0.90;;;1.70;99.90;;;;;;5008295;28;20396;-38
2023/01/19 01:06:15;;;;;;;3.17;1.58;;;1.70;99.90;;;;;;5005975;28;20801;-38
2023/01/19 01:08:41;;;;;;;5.80;2.25;;;1.80;99.90;;;;;;5010532;28;20042;-38
2023/01/19 01:11:07;;;;;;;3.88;1.70;;;1.80;99.90;;;;;;5003675;28;20050;-38
2023/01/19 01:13:32;;;;;;;4.45;2.08;;;1.80;99.90;;;;;;5006934;28;20502;-38
2023/01/19 01:15:58;;;;;;;5.03;2.58;;;1.90;99.90;;;;;;5010515;28;20030;-37
2023/01/19 01:18:25;;;;;;;4.38;2.40;;;1.90;99.90;;;;;;5007275;28;20407;-36
2023/01/19 01:20:50;;;;;;;6.18;3.10;;;1.90;99.90;;;;;;5010535;28;20042;-38
2023/01/19 01:23:21;;;;;;;5.65;3.00;;;1.90;99.90;;;;;;5007972;28;20033;-37
2023/01/19 01:25:47;;;;;;;6.93;3.40;;;1.90;99.90;;;;;;5007569;28;20034;-37
2023/01/19 01:28:13;;;;;;;9.60;3.80;;;2.00;99.90;;;;;;5005020;28;20497;-37
2023/01/19 01:30:39;;;;;;;7.20;3.92;;;2.00;99.90;;;;;;5009946;28;20034;-37
2023/01/19 01:33:06;;;;;;;7.18;3.83;;;2.00;99.90;;;;;;5006191;28;20108;-37
2023/01/19 01:35:32;;;;;;;4.97;2.42;;;1.90;99.90;;;;;;5004876;28;20034;-38
2023/01/19 01:38:00;;;;;;;4.97;2.75;;;1.90;99.90;;;;;;5011891;28;20458;-36
2023/01/19 01:40:27;;;;;;;6.32;3.30;;;2.00;99.90;;;;;;5006374;28;20129;-37
2023/01/19 01:42:53;;;;;;;7.70;4.28;;;2.00;99.90;;;;;;5005442;28;20042;-37
2023/01/19 01:45:37;;;;;;;6.65;3.53;;;2.00;99.90;;;;;;5008872;28;20042;-37
2023/01/19 01:48:26;;;;;;;6.95;3.58;;;2.00;99.90;;;;;;5006162;28;20160;-37
2023/01/19 01:53:44;;;;;;;4.30;2.15;;;2.10;99.90;;;;;;5008027;28;20515;-37
2023/01/19 01:56:16;;;;;;;5.95;3.22;;;2.10;99.90;;;;;;5005120;28;20092;-37
2023/01/19 01:58:42;;;;;;;9.30;3.03;;;2.10;99.90;;;;;;5007931;28;20490;-37
2023/01/19 02:03:54;;;;;;;4.07;1.92;;;2.10;99.90;;;;;;5004365;28;20465;-38
2023/01/19 02:06:21;;;;;;;5.00;2.30;;;2.20;99.90;;;;;;5006595;28;20044;-37
2023/01/19 02:14:21;;;;;;;5.80;2.88;;;2.20;99.90;;;;;;5006930;28;20060;-37
2023/01/19 02:16:48;;;;;;;6.32;2.20;;;2.20;99.90;;;;;;5009434;28;20044;-37
2023/01/19 02:19:20;;;;;;;3.88;1.65;;;2.20;99.90;;;;;;5007817;28;20038;-36
2023/01/19 02:21:52;;;;;;;;;;;2.30;99.90;;;;;;5003502;28;20060;-37
2023/01/19 02:24:18;;;;;;;4.47;1.80;;;2.30;99.90;;;;;;5006461;28;19921;-37
2023/01/19 02:26:45;;;;;;;5.45;2.72;;;2.30;99.90;;;;;;5004368;28;20049;-37
2023/01/19 02:29:17;;;;;;;4.82;1.90;;;2.30;99.90;;;;;;5008631;28;20046;-37
2023/01/19 02:31:44;;;;;;;3.88;1.80;;;2.30;99.90;;;;;;5003474;28;20046;-38
2023/01/19 02:34:14;;;;;;;5.10;2.17;;;2.30;99.90;;;;;;5006077;28;20064;-37
2023/01/19 02:36:53;;;;;;;3.10;1.58;;;2.30;99.90;;;;;;5004382;28;20050;-37
2023/01/19 02:39:44;;;;;;;5.25;2.35;;;2.30;99.90;;;;;;5005725;28;20048;-39
2023/01/19 02:42:20;;;;;;;4.65;1.98;;;2.30;99.90;;;;;;5004225;28;20041;-37
2023/01/19 02:44:48;;;;;;;5.80;2.10;;;2.20;99.90;;;;;;5002524;28;20118;-37
2023/01/19 02:47:14;;;;;;;4.05;1.85;;;2.20;99.90;;;;;;5009787;28;20140;-36
2023/01/19 02:49:39;;;;;;;4.55;1.83;;;2.10;99.90;;;;;;5012181;28;20117;-37
2023/01/19 02:52:14;;;;;;;4.15;1.65;;;2.10;99.90;;;;;;4988794;28;20041;-37
2023/01/19 02:54:53;;;;;;;3.00;1.48;;;2.00;99.90;;;;;;5005024;28;20053;-36
2023/01/19 02:57:49;;;;;;;3.70;1.98;;;1.90;99.90;;;;;;5006423;28;20112;-37
2023/01/19 03:00:48;;;;;;;3.85;1.80;;;1.80;99.90;;;;;;5009450;28;20056;-37
2023/01/19 03:03:16;;;;;;;3.58;1.58;;;1.80;99.90;;;;;;4993008;28;20120;-37
2023/01/19 03:05:56;;;;;;;2.80;1.27;;;1.70;99.90;;;;;;5004921;28;20042;-37
2023/01/19 03:08:42;;;;;;;3.00;1.38;;;1.70;99.90;;;;;;5010175;28;20092;-37
2023/01/19 03:11:12;;;;;;;3.67;1.60;;;1.70;99.90;;;;;;5004965;28;20073;-37
2023/01/19 03:14:07;;;;;;;3.33;1.40;;;1.60;99.90;;;;;;5003991;28;20045;-37
2023/01/19 03:16:49;;;;;;;3.05;1.20;;;1.60;99.90;;;;;;5010351;28;20038;-37
2023/01/19 03:19:48;;;;;;;1.88;0.80;;;1.70;99.90;;;;;;5009165;28;20042;-37
2023/01/19 03:22:22;;;;;;;1.48;0.73;;;1.70;99.90;;;;;;4972839;28;20108;-37
2023/01/19 03:24:50;;;;;;;2.65;1.13;;;1.80;99.90;;;;;;5005914;28;20048;-40
2023/01/19 03:27:30;;;;;;;2.10;1.00;;;1.80;99.90;;;;;;5006511;28;20042;-37
2023/01/19 03:30:05;;;;;;;2.22;1.05;;;1.90;99.90;;;;;;5005099;28;20495;-37
2023/01/19 03:32:42;;;;;;;4.32;1.10;;;1.90;99.90;;;;;;4995607;28;20081;-37
2023/01/19 03:35:13;;;;;;;2.60;0.90;;;1.90;99.90;;;;;;5005669;28;20554;-37
2023/01/19 03:37:43;;;;;;;2.90;1.33;;;1.90;99.90;;;;;;5006629;28;20053;-37
2023/01/19 03:40:10;;;;;;;5.07;1.40;;;2.00;99.90;;;;;;5005341;28;20096;-37
2023/01/19 03:42:37;;;;;;;3.08;1.40;;;2.00;99.90;;;;;;4987193;28;20084;-36
2023/01/19 03:45:04;;;;;;;3.08;1.30;;;2.00;99.90;;;;;;5005246;28;20109;-37
2023/01/19 03:47:30;;;;;;;3.25;1.10;;;2.00;99.90;;;;;;5006558;28;20038;-36
2023/01/19 03:49:57;;;;;;;4.60;1.60;;;2.00;99.90;;;;;;4992420;28;20105;-36
2023/01/19 03:52:28;;;;;;;3.08;1.30;;;2.10;99.90;;;;;;5005642;28;20044;-36
2023/01/19 03:54:54;;;;;;;3.65;1.08;;;2.10;99.90;;;;;;5004724;28;20488;-38
2023/01/19 03:57:21;;;;;;;3.10;1.05;;;2.20;99.90;;;;;;5007671;28;20037;-38
2023/01/19 03:59:46;;;;;;;2.20;0.60;;;2.40;99.90;;;;;;5003941;28;20519;-39
2023/01/19 04:02:13;;;;;;;6.20;1.42;;;2.50;99.90;;;;;;5006546;28;20040;-39
2023/01/19 04:04:39;;;;;;;5.97;0.77;;;2.50;99.90;;;;;;5008599;28;20038;-39
2023/01/19 04:07:05;;;;;;;6.70;1.00;;;2.60;99.90;;;;;;5012355;28;20125;-38
2023/01/19 04:09:31;;;;;;;4.40;1.10;;;2.60;99.90;;;;;;5008028;28;20092;-38
2023/01/19 04:11:57;;;;;;;8.05;0.80;;;2.60;99.90;;;;;;5012740;28;20034;-38
2023/01/19 04:14:22;;;;;;;2.92;0.55;;;2.60;99.90;;;;;;5012008;28;20454;-38
2023/01/19 04:16:48;;;;;;;2.70;0.40;;;2.70;99.90;;;;;;5014172;28;20411;-38
2023/01/19 04:19:14;;;;;;;10.80;0.77;;;2.80;99.90;;;;;;5009795;28;20491;-39
2023/01/19 04:21:39;;;;;;;6.78;0.73;;;3.00;99.90;;;;;;5007493;28;20596;-39
2023/01/19 04:24:06;;;;;;;8.27;0.88;;;3.20;99.90;;;;;;5010158;28;20041;-39
2023/01/19 04:26:31;;;;;;;5.18;0.35;;;3.40;99.90;;;;;;5006319;28;20042;-39
2023/01/19 04:28:57;;;;;;;6.68;0.63;;;3.60;99.90;;;;;;5009905;28;20145;-39
2023/01/19 04:31:23;;;;;;;7.88;0.60;;;3.70;99.90;;;;;;5010577;28;20128;-40
2023/01/19 04:33:49;;;;;;;6.15;0.73;;;3.70;99.90;;;;;;4997553;28;20740;-39
2023/01/19 04:36:15;;;;;;;11.98;1.20;;;3.80;99.90;;;;;;5007702;28;20065;-39
2023/01/19 04:38:40;;;;;;;4.50;0.70;;;3.80;99.90;;;;;;4990860;28;20038;-38
2023/01/19 04:41:06;;;;;;;7.82;0.70;;;3.90;99.90;;;;;;5009477;28;20435;-38
2023/01/19 04:43:32;;;;;;;8.95;0.95;;;3.90;99.90;;;;;;5007318;28;20046;-39
2023/01/19 04:45:58;;;;;;;14.88;2.15;;;4.00;99.90;;;;;;5009301;28;20418;-37
2023/01/19 04:48:24;;;;;;;8.18;1.15;;;4.00;99.90;;;;;;5008603;28;20527;-39
2023/01/19 04:50:51;;;;;;;10.20;0.98;;;4.20;99.90;;;;;;5011632;28;20042;-39
2023/01/19 04:53:17;;;;;;;12.20;1.10;;;4.20;99.90;;;;;;5010127;28;20038;-39
2023/01/19 04:55:43;;;;;;;8.35;1.13;;;4.30;99.90;;;;;;5007449;28;20131;-37
2023/01/19 04:58:09;;;;;;;10.07;1.13;;;4.40;99.90;;;;;;5010044;28;20045;-39
2023/01/19 05:00:35;;;;;;;10.10;1.08;;;4.40;99.90;;;;;;4989548;28;20121;-36
2023/01/19 05:03:01;;;;;;;11.23;1.00;;;4.40;99.90;;;;;;5010615;28;20037;-39
2023/01/19 05:05:27;;;;;;;7.25;0.75;;;4.40;99.90;;;;;;5005403;28;20046;-39
2023/01/19 05:07:53;;;;;;;5.25;0.63;;;4.30;99.90;;;;;;5008788;28;20034;-39
2023/01/19 05:10:19;;;;;;;14.18;1.13;;;4.40;99.90;;;;;;5007205;28;20594;-40
2023/01/19 05:12:45;;;;;;;10.07;1.17;;;4.30;99.90;;;;;;5008567;28;20415;-38
2023/01/19 05:15:10;;;;;;;9.55;0.80;;;4.20;99.90;;;;;;5014072;28;20052;-52
2023/01/19 05:17:36;;;;;;;7.07;1.75;;;4.20;99.90;;;;;;5006728;28;20053;-37
2023/01/19 05:20:03;;;;;;;5.15;0.32;;;4.10;99.90;;;;;;5008092;28;20116;-37
2023/01/19 05:22:28;;;;;;;6.63;0.80;;;4.10;99.90;;;;;;4989352;28;20494;-37
2023/01/19 05:24:54;;;;;;;4.35;0.57;;;4.00;99.90;;;;;;5007446;28;20042;-39
2023/01/19 05:27:20;;;;;;;8.82;0.80;;;4.00;99.90;;;;;;5005310;28;20410;-37
2023/01/19 05:29:45;;;;;;;8.05;0.40;;;4.00;99.90;;;;;;4999982;28;20038;-37
2023/01/19 05:32:12;;;;;;;6.38;1.20;;;4.00;99.90;;;;;;5006525;28;20135;-37
2023/01/19 05:34:38;;;;;;;8.38;0.93;;;4.00;99.90;;;;;;5007842;28;20535;-37
2023/01/19 05:37:04;;;;;;;6.85;0.68;;;4.00;99.90;;;;;;4994628;28;20061;-37
2023/01/19 05:39:30;;;;;;;8.00;0.70;;;3.90;99.90;;;;;;5004644;28;20490;-38
2023/01/19 05:41:55;;;;;;;5.47;0.68;;;3.90;99.90;;;;;;5008463;28;20042;-37
2023/01/19 05:44:21;;;;;;;11.95;1.48;;;3.80;99.90;;;;;;5009329;28;20061;-37
2023/01/19 05:46:47;;;;;;;9.52;0.70;;;3.80;99.90;;;;;;5006756;28;20133;-37
2023/01/19 05:49:13;;;;;;;7.55;0.70;;;3.70;99.90;;;;;;5006170;28;20149;-37
2023/01/19 05:51:39;;;;;;;10.38;0.82;;;3.70;99.90;;;;;;5006072;28;20077;-37
2023/01/19 05:54:06;;;;;;;11.55;1.02;;;3.70;99.90;;;;;;5007621;28;20127;-37
2023/01/19 05:56:32;;;;;;;6.95;0.73;;;3.80;99.90;;;;;;5009330;28;20484;-37
2023/01/19 05:58:58;;;;;;;8.95;0.75;;;3.70;99.90;;;;;;5010861;28;20505;-37
2023/01/19 06:01:25;;;;;;;4.85;0.50;;;3.70;99.90;;;;;;5002320;28;20057;-37
2023/01/19 06:03:50;;;;;;;10.13;0.65;;;3.70;99.90;;;;;;5007994;28;20034;-37
2023/01/19 06:06:17;;;;;;;7.72;0.95;;;3.70;99.90;;;;;;5006721;28;20038;-37
2023/01/19 06:08:43;;;;;;;3.60;0.80;;;3.70;99.90;;;;;;5008388;28;20380;-38
2023/01/19 06:11:09;;;;;;;7.97;0.93;;;3.70;99.90;;;;;;5003649;28;20060;-38
2023/01/19 06:13:35;;;;;;;7.32;0.40;;;3.70;99.90;;;;;;5002547;28;20418;-38
2023/01/19 06:16:02;;;;;;;4.50;0.30;;;3.70;99.90;;;;;;5004973;28;20487;-38
2023/01/19 06:18:28;;;;;;;10.75;0.77;;;3.80;99.90;;;;;;5005236;28;20038;-37
2023/01/19 06:20:57;;;;;;;8.20;0.70;;;3.80;99.90;;;;;;5002859;28;20792;-37
2023/01/19 06:23:29;;;;;;;17.00;1.35;;;3.90;99.90;;;;;;5005254;28;20547;-37
2023/01/19 06:25:55;;;;;;;11.00;1.33;;;3.90;99.90;;;;;;4999135;28;20123;-36
2023/01/19 06:28:21;;;;;;;6.28;0.60;;;3.90;99.90;;;;;;4999437;28;20499;-38
2023/01/19 06:30:52;;;;;;;7.20;0.70;;;3.90;99.90;;;;;;4999161;28;20045;-36
2023/01/19 06:33:18;;;;;;;3.13;0.50;;;3.90;99.90;;;;;;5002965;28;20406;-38
2023/01/19 06:35:45;;;;;;;3.75;0.28;;;3.80;99.90;;;;;;5004513;28;20052;-36
2023/01/19 06:38:15;;;;;;;6.28;0.47;;;3.80;99.90;;;;;;5001781;28;20045;-36
2023/01/19 06:40:42;;;;;;;2.85;0.40;;;3.70;99.90;;;;;;4994861;28;20049;-36
2023/01/19 06:43:07;;;;;;;4.07;0.70;;;3.60;99.90;;;;;;5005347;28;20045;-39
2023/01/19 06:45:33;;;;;;;3.55;0.40;;;3.60;99.90;;;;;;5000764;28;20072;-38
2023/01/19 06:48:00;;;;;;;3.08;0.40;;;3.60;99.90;;;;;;5001161;28;20042;-37
2023/01/19 06:50:26;;;;;;;5.90;0.52;;;3.60;99.90;;;;;;4999627;28;20518;-38
2023/01/19 06:52:52;;;;;;;8.57;0.65;;;3.60;99.90;;;;;;4998435;28;20037;-37
2023/01/19 06:55:18;;;;;;;5.63;1.10;;;3.70;99.90;;;;;;5001871;28;20058;-37
2023/01/19 06:57:44;;;;;;;6.43;0.80;;;3.70;99.90;;;;;;5014073;28;20038;-37
2023/01/19 07:00:12;;;;;;;2.80;0.32;;;3.70;99.90;;;;;;5000223;28;20081;-43
2023/01/19 07:02:41;;;;;;;5.57;0.70;;;3.70;99.90;;;;;;4999891;28;20411;-36
2023/01/19 07:05:08;;;;;;;6.32;0.55;;;3.80;99.90;;;;;;5008288;28;20139;-36
2023/01/19 07:07:34;;;;;;;8.85;0.70;;;3.80;99.90;;;;;;5005904;28;20038;-41
2023/01/19 07:10:00;;;;;;;4.07;0.57;;;3.80;99.90;;;;;;5004433;28;20042;-37
2023/01/19 07:12:26;;;;;;;6.95;0.85;;;3.80;99.90;;;;;;5002289;28;20038;-37
2023/01/19 07:14:51;;;;;;;10.57;0.60;;;3.80;99.90;;;;;;5001392;28;20399;-36
2023/01/19 07:17:18;;;;;;;5.90;0.80;;;3.80;99.90;;;;;;5008947;28;20037;-38
2023/01/19 07:19:45;;;;;;;7.47;0.65;;;3.80;99.90;;;;;;5005437;28;20034;-37
2023/01/19 07:22:10;;;;;;;6.32;0.75;;;3.80;99.90;;;;;;5012373;28;20046;-38
2023/01/19 07:24:36;;;;;;;5.85;0.63;;;3.80;99.90;;;;;;5014499;28;20510;-37
2023/01/19 07:27:03;;;;;;;9.75;0.93;;;3.80;99.90;;;;;;5012180;28;20049;-38
2023/01/19 07:29:29;;;;;;;9.93;0.50;;;3.80;99.90;;;;;;5012853;28;20041;-37
2023/01/19 07:31:55;;;;;;;2.38;0.45;;;3.80;99.90;;;;;;5019521;28;20045;-36
2023/01/19 07:34:21;;;;;;;9.40;0.60;;;3.80;99.90;;;;;;5009142;28;20045;-37
2023/01/19 07:36:46;;;;;;;9.88;1.05;;;3.80;99.90;;;;;;5005324;28;20351;-37
2023/01/19 07:39:12;;;;;;;9.27;1.10;;;3.80;99.90;;;;;;4979074;28;20466;-37
2023/01/19 07:41:38;;;;;;;13.88;1.13;;;3.80;99.90;;;;;;4991489;28;20050;-38
2023/01/19 07:44:04;;;;;;;4.03;0.98;;;3.80;99.90;;;;;;4983717;28;20046;-37
2023/01/19 07:46:30;;;;;;;5.63;0.32;;;3.70;99.90;;;;;;4997689;28;20145;-37
2023/01/19 07:48:55;;;;;;;3.85;0.47;;;3.70;99.90;;;;;;4993820;28;20384;-37
2023/01/19 07:51:21;;;;;;;7.82;0.80;;;3.70;99.90;;;;;;4996151;28;20103;-37
2023/01/19 07:53:49;;;;;;;9.98;0.73;;;3.70;99.90;;;;;;4998337;28;20108;-37
2023/01/19 07:56:15;;;;;;;5.07;1.13;;;3.70;99.90;;;;;;5005379;28;20496;-37
2023/01/19 07:58:41;;;;;;;8.02;0.60;;;3.70;99.90;;;;;;5007385;28;20057;-38
2023/01/19 08:01:09;;;;;;;8.05;0.90;;;3.70;99.90;;;;;;4992013;28;20057;-38
2023/01/19 08:03:35;;;;;;;10.25;0.93;;;3.60;99.90;;;;;;4995096;28;20045;-37
2023/01/19 08:06:02;;;;;;;11.10;0.85;;;3.60;99.90;;;;;;4991882;28;20046;-37
2023/01/19 08:08:32;;;;;;;13.65;1.67;;;3.60;99.90;;;;;;4988646;28;20046;-37
2023/01/19 08:10:58;;;;;;;6.53;0.85;;;3.60;99.90;;;;;;4989806;28;20042;-37
2023/01/19 08:13:27;;;;;;;10.25;0.90;;;3.60;99.90;;;;;;4992207;28;20066;-37
2023/01/19 08:15:53;;;;;;;8.25;0.68;;;3.60;99.90;;;;;;5000917;28;20120;-37
2023/01/19 08:18:19;;;;;;;9.13;0.85;;;3.50;99.90;;;;;;4991104;28;20543;-36
2023/01/19 08:20:45;;;;;;;6.43;0.75;;;3.50;99.90;;;;;;4996271;28;20250;-39
2023/01/19 08:23:11;;;;;;;11.27;1.70;;;3.50;99.90;;;;;;4994733;28;20089;-38
2023/01/19 08:25:43;;;;;;;6.90;0.60;;;3.50;99.90;;;;;;4993282;28;20500;-38
2023/01/19 08:28:13;;;;;;;7.63;0.80;;;3.60;99.90;;;;;;4990641;28;20504;-38
2023/01/19 08:30:46;;;;;;;5.82;0.98;;;3.60;99.90;;;;;;4991824;28;20043;-38
2023/01/19 08:33:12;;;;;;;7.50;0.73;;;3.60;99.90;;;;;;4993008;28;20499;-38
2023/01/19 08:35:42;;;;;;;7.85;0.95;;;3.60;99.90;;;;;;4997956;28;20603;-38
2023/01/19 08:38:09;;;;;;;7.35;1.20;;;3.60;99.90;;;;;;5007846;28;20308;-38
2023/01/19 08:40:37;;;;;;;11.65;1.00;;;3.70;99.90;;;;;;4993551;28;20041;-38
2023/01/19 08:43:11;;;;;;;12.32;0.80;;;3.70;99.90;;;;;;5004467;28;20038;-38
2023/01/19 08:45:46;;;;;;;8.00;1.52;;;3.70;99.90;;;;;;5009038;28;20063;-38
2023/01/19 08:48:13;;;;;;;7.32;1.30;;;3.70;99.90;;;;;;4989860;28;20049;-38
2023/01/19 08:50:39;;;;;;;5.05;0.50;;;3.70;99.90;;;;;;5010146;28;20045;-38
2023/01/19 08:53:05;;;;;;;7.15;1.13;;;3.70;99.90;;;;;;5014826;28;20041;-43
2023/01/19 08:55:34;;;;;;;9.27;0.80;;;3.80;99.90;;;;;;5006566;28;20034;-39
2023/01/19 08:58:00;;;;;;;3.65;0.98;;;3.80;99.90;;;;;;5007237;28;20080;-38
2023/01/19 09:00:26;;;;;;;3.30;0.47;;;3.80;99.90;;;;;;5009889;28;20041;-38
2023/01/19 09:02:53;;;;;;;8.95;0.70;;;3.70;99.90;;;;;;5013748;28;20037;-38
2023/01/19 09:05:19;;;;;;;18.92;1.67;;;3.70;99.90;;;;;;5010320;28;20388;-38
2023/01/19 09:07:47;;;;;;;3.53;0.60;;;3.60;99.90;;;;;;5009715;28;20076;-38
2023/01/19 09:10:14;;;;;;;12.30;0.75;;;3.60;99.90;;;;;;5007460;28;20052;-38
2023/01/19 09:12:40;;;;;;;5.82;0.95;;;3.60;99.90;;;;;;5006508;28;20045;-45
2023/01/19 09:15:06;;;;;;;11.20;1.88;;;3.60;99.90;;;;;;5007824;28;20038;-45
2023/01/19 09:17:32;;;;;;;6.35;0.90;;;3.70;99.90;;;;;;5006970;28;20049;-39
2023/01/19 09:19:58;;;;;;;5.57;0.70;;;3.70;99.90;;;;;;4986553;28;20129;-44
2023/01/19 09:22:24;;;;;;;6.70;1.05;;;3.80;99.90;;;;;;5008597;28;20037;-42
2023/01/19 09:24:49;;;;;;;6.43;0.57;;;3.90;99.90;;;;;;5011172;28;20045;-41
2023/01/19 09:27:15;;;;;;;9.75;0.82;;;3.90;99.90;;;;;;5011439;28;20234;-44
2023/01/19 09:29:41;;;;;;;8.02;0.63;;;3.90;99.90;;;;;;4991441;28;20123;-45
2023/01/19 09:32:07;;;;;;;5.82;0.80;;;3.90;99.90;;;;;;4998487;28;20042;-44
2023/01/19 09:34:33;;;;;;;9.15;1.77;;;3.90;99.90;;;;;;4993797;28;20045;-43
2023/01/19 09:36:59;;;;;;;12.30;1.83;;;3.90;99.90;;;;;;5010617;28;20119;-43
2023/01/19 09:39:25;;;;;;;7.68;1.33;;;3.90;99.90;;;;;;5006305;28;20064;-43
2023/01/19 09:42:05;;;;;;;6.40;0.65;;;3.90;99.90;;;;;;5007135;28;20033;-38
2023/01/19 09:44:34;;;;;;;6.55;1.35;;;4.00;99.90;;;;;;5019532;28;20053;-44
2023/01/19 09:47:15;;;;;;;9.32;0.90;;;4.00;99.90;;;;;;5012539;28;20041;-44
2023/01/19 09:49:49;;;;;;;8.20;1.40;;;4.10;99.90;;;;;;5009754;28;20049;-41
2023/01/19 09:52:17;;;;;;;8.27;0.90;;;4.20;99.90;;;;;;5012171;28;20037;-45
2023/01/19 09:54:51;;;;;;;5.95;0.80;;;4.30;99.90;;;;;;4997165;28;20041;-42
2023/01/19 09:57:17;;;;;;;8.68;1.05;;;4.30;99.90;;;;;;5010805;28;20165;-44
2023/01/19 09:59:46;;;;;;;9.45;0.90;;;4.40;99.90;;;;;;5015500;28;20470;-45
2023/01/19 10:02:24;;;;;;;16.85;0.90;;;4.50;99.90;;;;;;5008304;28;20042;-45
2023/01/19 10:05:16;;;;;;;4.15;0.60;;;4.50;99.90;;;;;;5007191;28;20041;-44
2023/01/19 10:07:44;;;;;;;8.65;0.70;;;4.60;99.90;;;;;;5010366;28;20046;-44
2023/01/19 10:10:20;;;;;;;8.60;1.08;;;4.70;99.90;;;;;;5012963;28;20041;-44
2023/01/19 10:13:08;;;;;;;6.43;0.82;;;4.70;99.90;;;;;;5014834;28;20053;-45
2023/01/19 10:15:58;;;;;;;6.13;0.50;;;4.80;99.90;;;;;;5006869;28;20041;-44
2023/01/19 10:18:46;;;;;;;6.43;0.77;;;4.90;99.90;;;;;;5006322;28;20042;-41
2023/01/19 10:21:22;;;;;;;6.85;1.40;;;5.00;99.90;;;;;;5010223;28;20034;-46
2023/01/19 10:23:59;;;;;;;4.10;0.57;;;5.00;99.90;;;;;;5006799;28;20081;-41
2023/01/19 10:26:58;;;;;;;6.65;0.50;;;5.10;99.90;;;;;;5011009;28;20096;-39
2023/01/19 10:29:35;;;;;;;6.00;0.63;;;5.20;99.90;;;;;;4984357;28;20046;-45
2023/01/19 10:32:07;;;;;;;9.07;1.00;;;5.20;99.90;;;;;;5005608;28;21917;-44
2023/01/19 10:34:33;;;;;;;3.53;0.50;;;5.20;99.90;;;;;;5006135;28;20568;-43
2023/01/19 10:37:24;;;;;;;6.57;0.65;;;5.30;99.90;;;;;;4997078;28;20054;-45
2023/01/19 10:39:59;;;;;;;4.93;0.50;;;5.30;99.90;;;;;;4981974;28;20053;-41
2023/01/19 10:42:28;;;;;;;6.97;0.75;;;5.40;99.90;;;;;;4972033;28;20496;-44
2023/01/19 10:44:54;;;;;;;3.67;0.55;;;5.40;99.90;;;;;;4972876;28;20099;-48
2023/01/19 10:47:26;;;;;;;4.63;0.60;;;5.40;99.90;;;;;;4983949;28;20098;-42
2023/01/19 10:49:52;;;;;;;8.07;1.27;;;5.50;99.90;;;;;;4971606;28;20038;-39
2023/01/19 10:52:29;;;;;;;3.00;0.28;;;5.50;99.90;;;;;;4966243;28;20061;-42
2023/01/19 10:54:56;;;;;;;6.13;0.55;;;5.50;99.90;;;;;;4989260;28;20567;-43
2023/01/19 10:57:27;;;;;;;4.35;0.40;;;5.60;99.90;;;;;;4985801;28;20566;-44
2023/01/19 10:59:52;;;;;;;8.65;0.60;;;5.60;99.90;;;;;;4987519;28;20042;-41
2023/01/19 11:02:21;;;;;;;11.55;1.00;;;5.60;99.90;;;;;;4987366;28;20041;-44
2023/01/19 11:04:50;;;;;;;7.75;0.55;;;5.70;99.90;;;;;;4988128;28;20115;-44
2023/01/19 11:07:32;;;;;;;4.55;0.40;;;5.80;99.90;;;;;;4987803;28;20125;-44
2023/01/19 11:10:16;;;;;;;3.88;0.50;;;6.10;99.90;;;;;;4991240;28;20385;-42
2023/01/19 11:13:02;;;;;;;2.75;0.40;;;6.40;99.90;;;;;;4992176;28;20582;-44
2023/01/19 11:15:43;;;;;;;3.90;0.40;;;6.80;98.80;;;;;;4990835;28;20054;-38
2023/01/19 11:18:28;;;;;;;8.00;0.70;;;7.10;96.50;;;;;;4993254;28;20100;-38
2023/01/19 11:20:59;;;;;;;5.10;0.85;;;7.50;96.50;;;;;;5000207;28;20041;-37
2023/01/19 11:23:30;;;;;;;6.43;0.60;;;7.60;92.00;;;;;;4989762;28;20042;-37
2023/01/19 11:26:01;;;;;;;5.45;0.40;;;7.70;94.60;;;;;;4973401;28;20117;-38
2023/01/19 11:28:40;;;;;;;2.65;0.30;;;7.90;93.50;;;;;;4995186;28;20081;-38
2023/01/19 11:31:09;;;;;;;4.97;0.30;;;7.90;92.40;;;;;;4994292;28;20042;-37
2023/01/19 11:33:40;;;;;;;2.63;0.20;;;8.00;92.60;;;;;;4990792;28;20034;-39
2023/01/19 11:36:19;;;;;;;3.03;0.30;;;8.00;92.60;;;;;;5002262;28;20050;-37
2023/01/19 11:38:49;;;;;;;5.80;0.70;;;8.20;90.70;;;;;;5006949;28;20545;-37
2023/01/19 11:41:21;;;;;;;4.63;0.55;;;8.40;91.90;;;;;;5001774;28;20128;-37
2023/01/19 11:44:25;;;;;;;3.58;0.82;;;8.40;90.80;;;;;;5006460;28;20562;-37
2023/01/19 11:47:02;;;;;;;12.20;2.25;;;8.60;90.00;;;;;;5008290;28;20487;-40
2023/01/19 11:49:39;;;;;;;2.75;0.50;;;8.70;91.30;;;;;;5015403;28;20077;-37
2023/01/19 11:52:10;;;;;;;4.00;0.30;;;8.60;85.70;;;;;;5011789;28;20056;-38
2023/01/19 11:54:44;;;;;;;3.22;0.30;;;8.80;90.00;;;;;;5010287;28;20505;-43
2023/01/19 11:57:14;;;;;;;5.70;0.50;;;8.70;83.10;;;;;;4994067;28;20044;-41
2023/01/19 11:59:40;;;;;;;3.20;0.30;;;8.70;90.50;;;;;;5011697;28;20033;-37
2023/01/19 12:02:23;;;;;;;11.73;1.42;;;8.90;90.70;;;;;;5013179;28;20041;-37
2023/01/19 12:04:49;;;;;;;1.90;0.77;;;9.00;86.90;;;;;;5006086;28;20053;-37
2023/01/19 12:07:21;;;;;;;3.40;0.50;;;8.90;86.00;;;;;;5018980;28;20041;-39
2023/01/19 12:09:50;;;;;;;3.90;0.43;;;9.00;88.10;;;;;;5016472;28;20511;-37
2023/01/19 12:12:28;;;;;;;2.00;0.30;;;9.10;88.60;;;;;;5010028;28;20038;-40
2023/01/19 12:15:03;;;;;;;5.05;0.50;;;9.00;86.20;;;;;;5011762;28;20479;-37
2023/01/19 12:17:36;;;;;;;5.07;0.30;;;9.10;88.30;;;;;;5020952;28;20044;-38
2023/01/19 12:20:25;;;;;;;9.05;0.60;;;9.20;85.50;;;;;;5012661;28;20116;-37
2023/01/19 12:23:17;;;;;;;2.92;0.32;;;9.20;87.00;;;;;;5008226;28;20128;-38
2023/01/19 12:25:50;;;;;;;3.75;0.32;;;9.00;89.50;;;;;;4965247;28;20053;-40
2023/01/19 12:28:19;;;;;;;2.05;0.30;;;8.80;90.70;;;;;;5007855;28;20076;-37
2023/01/19 12:30:45;;;;;;;5.22;0.50;;;8.40;91.00;;;;;;5008733;28;20088;-43
2023/01/19 12:33:25;;;;;;;4.43;0.75;;;8.00;91.20;;;;;;5008640;28;20053;-37
2023/01/19 12:35:54;;;;;;;2.45;0.40;;;7.80;91.90;;;;;;5010028;28;20456;-38
2023/01/19 12:38:51;;;;;;;4.22;0.20;;;8.10;91.60;;;;;;5009089;28;20034;-37
2023/01/19 12:41:30;;;;;;;2.67;0.22;;;8.80;90.30;;;;;;5014064;28;20087;-38
2023/01/19 12:44:11;;;;;;;3.20;0.30;;;9.20;86.70;;;;;;5009526;28;20041;-38
2023/01/19 12:46:44;;;;;;;3.25;0.30;;;9.40;84.00;;;;;;5004273;28;20049;-38
2023/01/19 12:49:38;;;;;;;3.65;0.57;;;9.80;83.70;;;;;;5010445;28;20103;-36
2023/01/19 12:52:25;;;;;;;4.60;0.40;;;10.00;78.30;;;;;;4997361;28;20539;-38
2023/01/19 12:54:57;;;;;;;6.03;0.35;;;10.10;79.40;;;;;;5012695;28;20531;-37
2023/01/19 12:57:30;;;;;;;5.03;0.45;;;10.60;82.70;;;;;;5006346;28;20049;-37
2023/01/19 12:59:58;;;;;;;3.67;0.40;;;11.20;79.90;;;;;;5013478;28;20332;-38
2023/01/19 13:02:41;;;;;;;4.60;0.43;;;11.10;74.80;;;;;;5009776;28;20044;-37
2023/01/19 13:05:23;;;;;;;3.22;0.43;;;11.10;76.30;;;;;;5006650;28;20062;-38
2023/01/19 13:08:01;;;;;;;;;;;11.10;76.90;;;;;;5017750;28;20507;-38
2023/01/19 13:10:51;;;;;;;4.03;0.70;;;11.20;70.60;;;;;;5016038;28;19917;-37
2023/01/19 13:13:38;;;;;;;3.20;0.47;;;11.10;76.40;;;;;;5003006;28;20100;-39
2023/01/19 13:16:23;;;;;;;5.53;0.40;;;10.90;75.00;;;;;;5002905;28;20507;-37
2023/01/19 13:18:53;;;;;;;5.88;0.40;;;10.10;73.30;;;;;;5011540;28;20052;-37
2023/01/19 13:21:27;;;;;;;5.68;0.30;;;9.30;81.10;;;;;;5013175;28;20104;-36
2023/01/19 13:24:21;;;;;;;6.03;0.45;;;8.70;86.10;;;;;;5003625;28;20115;-36